MV Sebastian D — WDH9021 — position and weather

sailwx.info

Track history (hours):
 
Tides and Currents Weather Stations Pressure Air Temp Water Temp Dewpoint Dewpoint Depression Visibility Wind Speed Wind Dir Waves Ship Positions

MV Sebastian D

Owner: Enterprise Marine Services, LLC, San Antonio, TX. More information available from US FCC via Universal Licensing System and Coast Guard Vessel Documentation Center.

Last reported at 2018-May-23 15:01 UTC. Time now 2018-May-23 15:12 UTC.
Position N 29°31' W 094°53'.

Length 25 m; draft 3 m.

Type: Towing. MMSI: 367663890.

Date/timePositionNaut miles runAvg speedWind from/ knotsBaromVisibWave heightAir tempDewpointWater temp
2018-May-23 15:01N 29°31' W 094°53'3 6.6
2018-May-23 14:30N 29°34' W 094°55'3 6.8
2018-May-23 14:01N 29°36' W 094°57'4 7.3
2018-May-23 13:30N 29°40' W 094°59'3 6.9
2018-May-23 13:00N 29°42' W 095°01'2 0.1
2018-May-22 13:10N 29°44' W 095°03'0 1.5
2018-May-22 12:58N 29°44' W 095°03'2 4.9
2018-May-22 12:29N 29°46' W 095°05'1 0.1
2018-May-22 02:08N 29°47' W 095°05'0 0.0
2018-May-22 01:05N 29°47' W 095°05'0 0.0
2018-May-22 00:56N 29°47' W 095°05'0 0.0
2018-May-21 07:34N 29°47' W 095°05'0 0.0
2018-May-21 07:26N 29°47' W 095°05'0 0.0
2018-May-21 06:59N 29°47' W 095°05'0 0.0
2018-May-21 04:45N 29°47' W 095°05'0 0.0
2018-May-21 03:54N 29°47' W 095°05'0 0.0
2018-May-21 03:30N 29°47' W 095°05'0 0.0
2018-May-21 00:30N 29°47' W 095°05'2 0.0
2018-May-18 21:24N 29°46' W 095°07'1 3.0
2018-May-18 21:00N 29°45' W 095°06'2 0.2
2018-May-18 12:35N 29°47' W 095°05'0 0.1
2018-May-18 11:34N 29°47' W 095°05'0 0.0
2018-May-18 11:13N 29°47' W 095°05'0 0.0
2018-May-18 10:57N 29°47' W 095°05'0 0.0
2018-May-18 10:30N 29°47' W 095°05'0 0.0
2018-May-18 10:00N 29°47' W 095°05'0 0.0
2018-May-18 09:30N 29°47' W 095°05'0 0.0
2018-May-18 09:00N 29°47' W 095°05'0 0.0
2018-May-18 08:30N 29°47' W 095°05'0 0.0
2018-May-18 08:00N 29°47' W 095°05'0 0.0
2018-May-18 07:30N 29°47' W 095°05'0 0.0
2018-May-18 07:00N 29°47' W 095°05'0 0.0
2018-May-18 06:30N 29°47' W 095°05'0 0.0
2018-May-18 06:00N 29°47' W 095°05'0 0.0
2018-May-18 05:29N 29°47' W 095°05'0 0.0
2018-May-18 05:00N 29°47' W 095°05'0 0.0
2018-May-18 04:30N 29°47' W 095°05'0 0.0
2018-May-18 04:00N 29°47' W 095°05'0 0.0
2018-May-18 03:30N 29°47' W 095°05'0 0.0
2018-May-18 03:00N 29°47' W 095°05'0 0.0
2018-May-18 02:30N 29°47' W 095°05'0 0.0
2018-May-17 14:07N 29°47' W 095°05'0 0.2
2018-May-17 13:47N 29°47' W 095°05'1 1.7
2018-May-17 13:30N 29°47' W 095°04'1 2.2
2018-May-17 13:00N 29°46' W 095°05'1 2.1
2018-May-17 12:29N 29°47' W 095°04'0 0.7
2018-May-17 12:00N 29°47' W 095°05'0 0.3
2018-May-17 11:26N 29°47' W 095°05'0 0.2
2018-May-17 10:52N 29°47' W 095°05'0 0.0
2018-May-17 10:30N 29°47' W 095°05'0 0.1
2018-May-17 09:59N 29°47' W 095°05'0 0.1
2018-May-17 09:30N 29°47' W 095°05'0 0.0
2018-May-17 08:59N 29°47' W 095°05'0 0.0
2018-May-17 08:29N 29°47' W 095°05'0 0.0
2018-May-17 07:58N 29°47' W 095°05'0 0.0
2018-May-17 06:49N 29°47' W 095°05'0 0.0
2018-May-17 06:26N 29°47' W 095°05'0 0.1
2018-May-17 06:00N 29°47' W 095°05'0 0.2
2018-May-17 05:26N 29°47' W 095°05'0 0.2
2018-May-17 05:00N 29°47' W 095°05'1 1.2
2018-May-17 04:27N 29°47' W 095°04'1 1.5
2018-May-17 04:00N 29°46' W 095°05'0 0.1
2018-May-17 03:30N 29°47' W 095°05'1 1.6
2018-May-17 03:00N 29°46' W 095°05'3 6.3
2018-May-17 02:30N 29°44' W 095°02'3 6.1
2018-May-17 02:00N 29°42' W 094°59'4 7.2
2018-May-17 01:30N 29°38' W 094°58'4 7.5
2018-May-17 01:00N 29°35' W 094°56'3 7.0
2018-May-17 00:30N 29°32' W 094°54'3 6.8
2018-May-17 00:00N 29°29' W 094°52'3 7.0
2018-May-16 23:30N 29°26' W 094°50'3 6.9
2018-May-16 23:00N 29°23' W 094°48'2 4.9
2018-May-16 22:30N 29°23' W 094°46'1 1.8
2018-May-16 21:54N 29°24' W 094°45'0 0.2
2018-May-16 21:30N 29°24' W 094°45'0 0.5
2018-May-16 21:00N 29°24' W 094°44'0 0.0
2018-May-16 20:30N 29°24' W 094°44'0 0.0
2018-May-16 20:00N 29°24' W 094°44'0 0.0
2018-May-16 14:51N 29°24' W 094°44'0 0.0
2018-May-16 14:30N 29°24' W 094°44'0 0.0
2018-May-16 14:01N 29°24' W 094°44'0 0.0
2018-May-16 13:31N 29°24' W 094°44'0 0.0
2018-May-16 13:00N 29°24' W 094°44'0 0.0
2018-May-16 12:29N 29°24' W 094°44'0 0.0
2018-May-16 12:01N 29°24' W 094°44'0 0.0
2018-May-16 11:30N 29°24' W 094°44'0 0.0
2018-May-16 11:00N 29°24' W 094°44'0 0.0
2018-May-16 10:30N 29°24' W 094°44'1 2.4
2018-May-16 10:01N 29°25' W 094°44'2 4.2
2018-May-16 09:31N 29°27' W 094°42'2 4.8
2018-May-16 09:00N 29°28' W 094°39'2 5.0
2018-May-16 08:31N 29°29' W 094°37'3 5.0
2018-May-16 08:01N 29°30' W 094°34'3 5.2
2018-May-16 07:30N 29°31' W 094°31'2 4.9
2018-May-16 07:01N 29°32' W 094°29'2 4.8
2018-May-16 06:31N 29°34' W 094°27'2 3.6
2018-May-16 06:01N 29°34' W 094°25'2 3.9
2018-May-16 05:31N 29°36' W 094°24'2 4.5
2018-May-16 05:01N 29°37' W 094°21'2 4.2
2018-May-16 04:31N 29°38' W 094°19'2 4.5
2018-May-16 04:00N 29°39' W 094°17'2 4.6
2018-May-16 03:31N 29°40' W 094°14'2 4.6
2018-May-16 03:00N 29°41' W 094°12'2 4.3
2018-May-16 02:31N 29°41' W 094°10'2 4.4
2018-May-16 02:01N 29°43' W 094°08'2 4.6
2018-May-16 01:30N 29°44' W 094°06'2 4.6
2018-May-16 01:01N 29°46' W 094°04'2 4.7
2018-May-16 00:30N 29°47' W 094°01'2 4.3
2018-May-16 00:01N 29°49' W 093°60'2 4.7
2018-May-15 23:31N 29°50' W 093°57'3 6.2
2018-May-15 23:01N 29°52' W 093°56'3 6.5
2018-May-15 22:30N 29°55' W 093°53'3 6.3
2018-May-15 22:01N 29°58' W 093°51'2 3.6
2018-May-15 21:29N 29°59' W 093°53'0 0.0
2018-May-15 20:59N 29°59' W 093°53'0 0.1
2018-May-15 20:28N 29°59' W 093°53'0 0.0
2018-May-15 19:58N 29°59' W 093°53'0 0.0
2018-May-15 19:28N 29°59' W 093°53'0 0.0
2018-May-15 18:58N 29°59' W 093°53'0 0.0
2018-May-15 18:28N 29°59' W 093°53'0 0.0
2018-May-15 17:58N 29°59' W 093°53'0 0.0
2018-May-15 17:28N 29°59' W 093°53'0 0.0
2018-May-15 16:58N 29°59' W 093°53'0 0.0
2018-May-15 16:28N 29°59' W 093°53'0 0.0
2018-May-15 15:58N 29°59' W 093°53'0 0.0
2018-May-15 15:28N 29°59' W 093°53'0 0.0
2018-May-15 14:58N 29°59' W 093°53'0 0.0
2018-May-15 14:28N 29°59' W 093°53'0 0.0
2018-May-15 13:58N 29°59' W 093°53'0 0.0
2018-May-15 13:28N 29°59' W 093°53'0 0.0
2018-May-15 12:58N 29°59' W 093°53'0 0.0
2018-May-15 12:28N 29°59' W 093°53'0 0.0
2018-May-15 11:58N 29°59' W 093°53'0 0.0
2018-May-15 11:28N 29°59' W 093°53'0 0.0
2018-May-15 10:55N 29°59' W 093°53'0 0.0
2018-May-15 10:28N 29°59' W 093°53'0 0.0
2018-May-15 09:55N 29°59' W 093°53'0 0.0
2018-May-15 09:28N 29°59' W 093°53'0 0.0
2018-May-15 08:58N 29°59' W 093°53'0 0.0
2018-May-15 08:28N 29°59' W 093°53'0 0.0
2018-May-15 07:58N 29°59' W 093°53'0 0.0
2018-May-15 07:28N 29°59' W 093°53'0 0.0
2018-May-15 06:58N 29°59' W 093°53'0 0.0
2018-May-15 06:28N 29°59' W 093°53'0 0.0
2018-May-15 05:58N 29°59' W 093°53'0 0.0
2018-May-15 05:28N 29°59' W 093°53'0 0.0
2018-May-15 04:58N 29°59' W 093°53'0 0.0
2018-May-15 04:28N 29°59' W 093°53'0 0.0
2018-May-15 03:58N 29°59' W 093°53'0 0.0
2018-May-15 03:28N 29°59' W 093°53'0 0.0
2018-May-15 02:58N 29°59' W 093°53'0 0.0
2018-May-15 02:28N 29°59' W 093°53'0 0.0
2018-May-15 01:58N 29°59' W 093°53'0 0.0
2018-May-15 01:28N 29°59' W 093°53'0 0.0
2018-May-15 00:58N 29°59' W 093°53'0 0.0
2018-May-15 00:28N 29°59' W 093°53'0 0.0
2018-May-14 23:58N 29°59' W 093°53'0 0.0
2018-May-14 23:28N 29°59' W 093°53'0 0.0
2018-May-14 22:58N 29°59' W 093°53'0 0.0
2018-May-14 22:28N 29°59' W 093°53'0 0.0
2018-May-14 21:58N 29°59' W 093°53'0 0.0
2018-May-14 21:28N 29°59' W 093°53'0 0.2
2018-May-14 20:58N 29°59' W 093°53'0 0.1
2018-May-14 20:28N 29°59' W 093°53'1 3.2
2018-May-14 20:00N 29°58' W 093°51'1 1.7
2018-May-14 19:28N 29°57' W 093°52'0 0.0
2018-May-14 18:58N 29°57' W 093°52'0 0.0
2018-May-14 18:28N 29°57' W 093°52'0 0.0
2018-May-14 17:58N 29°57' W 093°52'0 0.0
2018-May-14 17:28N 29°57' W 093°52'0 0.0
2018-May-14 16:58N 29°57' W 093°52'0 0.0
2018-May-14 16:28N 29°57' W 093°52'0 0.0
2018-May-14 15:58N 29°57' W 093°52'0 0.0
2018-May-14 15:28N 29°57' W 093°52'0 0.0
2018-May-14 14:58N 29°57' W 093°52'0 0.0
2018-May-14 14:28N 29°57' W 093°52'0 0.0
2018-May-14 13:58N 29°57' W 093°52'0 0.0
2018-May-14 13:30N 29°57' W 093°52'0 0.0
2018-May-14 13:00N 29°57' W 093°52'0 0.0
2018-May-14 12:30N 29°57' W 093°52'0 0.0
2018-May-14 12:00N 29°57' W 093°52'0 0.0
2018-May-14 11:30N 29°57' W 093°52'0 0.0
2018-May-14 11:00N 29°57' W 093°52'0 0.0
2018-May-14 10:30N 29°57' W 093°52'0 0.0
2018-May-14 10:00N 29°57' W 093°52'0 0.0
2018-May-14 09:30N 29°57' W 093°52'0 0.0
2018-May-14 09:00N 29°57' W 093°52'0 0.0
2018-May-14 08:30N 29°57' W 093°52'0 0.0
2018-May-14 08:00N 29°57' W 093°52'0 0.0
2018-May-14 07:30N 29°57' W 093°52'0 0.0
2018-May-14 07:00N 29°57' W 093°52'0 0.0
2018-May-14 06:30N 29°57' W 093°52'0 0.0
2018-May-14 06:00N 29°57' W 093°52'0 0.0
2018-May-14 05:30N 29°57' W 093°52'0 0.0
2018-May-14 05:00N 29°57' W 093°52'0 0.0
2018-May-14 04:30N 29°57' W 093°52'0 0.0
2018-May-14 04:00N 29°57' W 093°52'0 0.0
2018-May-14 03:30N 29°57' W 093°52'0 0.0
2018-May-14 03:00N 29°57' W 093°52'0 0.0
2018-May-14 02:29N 29°57' W 093°52'0 0.0
2018-May-14 02:00N 29°57' W 093°52'0 0.0
2018-May-14 01:30N 29°57' W 093°52'0 0.0
2018-May-14 01:00N 29°57' W 093°52'0 0.0
2018-May-14 00:30N 29°57' W 093°52'0 0.0
2018-May-14 00:00N 29°57' W 093°52'0 0.0
2018-May-13 23:30N 29°57' W 093°52'0 0.0
2018-May-13 23:00N 29°57' W 093°52'0 0.0
2018-May-13 22:30N 29°57' W 093°52'0 0.0
2018-May-13 22:00N 29°57' W 093°52'0 0.0
2018-May-13 21:31N 29°57' W 093°52'0 0.0
2018-May-13 21:00N 29°57' W 093°52'0 0.0
2018-May-13 20:30N 29°57' W 093°52'0 0.0
2018-May-13 20:00N 29°57' W 093°52'0 0.0
2018-May-13 19:30N 29°57' W 093°52'0 0.0
2018-May-13 19:00N 29°57' W 093°52'0 0.0
2018-May-13 18:30N 29°57' W 093°52'0 0.0
2018-May-13 18:00N 29°57' W 093°52'0 0.0
2018-May-13 17:30N 29°57' W 093°52'0 0.0
2018-May-13 17:00N 29°57' W 093°52'0 0.0
2018-May-13 16:30N 29°57' W 093°52'0 0.0
2018-May-13 16:00N 29°57' W 093°52'0 0.0
2018-May-13 15:30N 29°57' W 093°52'  
Track history (hours):
 
Tides and Currents Weather Stations Pressure Air Temp Water Temp Dewpoint Dewpoint Depression Visibility Wind Speed Wind Dir Waves Ship Positions

MV Sebastian D

Owner: Enterprise Marine Services, LLC, San Antonio, TX. More information available from US FCC via Universal Licensing System and Coast Guard Vessel Documentation Center.

Last reported at 2018-May-23 15:01 UTC. Time now 2018-May-23 15:12 UTC.
Position N 29°31' W 094°53'.

Length 25 m; draft 3 m.

Type: Towing. MMSI: 367663890.

Date/timePositionNaut miles runAvg speedWind from/ knotsBaromVisibWave heightAir tempDewpointWater temp
2018-May-23 15:01N 29°31' W 094°53'3 6.6
2018-May-23 14:30N 29°34' W 094°55'3 6.8
2018-May-23 14:01N 29°36' W 094°57'4 7.3
2018-May-23 13:30N 29°40' W 094°59'3 6.9
2018-May-23 13:00N 29°42' W 095°01'2 0.1
2018-May-22 13:10N 29°44' W 095°03'0 1.5
2018-May-22 12:58N 29°44' W 095°03'2 4.9
2018-May-22 12:29N 29°46' W 095°05'1 0.1
2018-May-22 02:08N 29°47' W 095°05'0 0.0
2018-May-22 01:05N 29°47' W 095°05'0 0.0
2018-May-22 00:56N 29°47' W 095°05'0 0.0
2018-May-21 07:34N 29°47' W 095°05'0 0.0
2018-May-21 07:26N 29°47' W 095°05'0 0.0
2018-May-21 06:59N 29°47' W 095°05'0 0.0
2018-May-21 04:45N 29°47' W 095°05'0 0.0
2018-May-21 03:54N 29°47' W 095°05'0 0.0
2018-May-21 03:30N 29°47' W 095°05'0 0.0
2018-May-21 00:30N 29°47' W 095°05'2 0.0
2018-May-18 21:24N 29°46' W 095°07'1 3.0
2018-May-18 21:00N 29°45' W 095°06'2 0.2
2018-May-18 12:35N 29°47' W 095°05'0 0.1
2018-May-18 11:34N 29°47' W 095°05'0 0.0
2018-May-18 11:13N 29°47' W 095°05'0 0.0
2018-May-18 10:57N 29°47' W 095°05'0 0.0
2018-May-18 10:30N 29°47' W 095°05'0 0.0
2018-May-18 10:00N 29°47' W 095°05'0 0.0
2018-May-18 09:30N 29°47' W 095°05'0 0.0
2018-May-18 09:00N 29°47' W 095°05'0 0.0
2018-May-18 08:30N 29°47' W 095°05'0 0.0
2018-May-18 08:00N 29°47' W 095°05'0 0.0
2018-May-18 07:30N 29°47' W 095°05'0 0.0
2018-May-18 07:00N 29°47' W 095°05'0 0.0
2018-May-18 06:30N 29°47' W 095°05'0 0.0
2018-May-18 06:00N 29°47' W 095°05'0 0.0
2018-May-18 05:29N 29°47' W 095°05'0 0.0
2018-May-18 05:00N 29°47' W 095°05'0 0.0
2018-May-18 04:30N 29°47' W 095°05'0 0.0
2018-May-18 04:00N 29°47' W 095°05'0 0.0
2018-May-18 03:30N 29°47' W 095°05'0 0.0
2018-May-18 03:00N 29°47' W 095°05'0 0.0
2018-May-18 02:30N 29°47' W 095°05'0 0.0
2018-May-17 14:07N 29°47' W 095°05'0 0.2
2018-May-17 13:47N 29°47' W 095°05'1 1.7
2018-May-17 13:30N 29°47' W 095°04'1 2.2
2018-May-17 13:00N 29°46' W 095°05'1 2.1
2018-May-17 12:29N 29°47' W 095°04'0 0.7
2018-May-17 12:00N 29°47' W 095°05'0 0.3
2018-May-17 11:26N 29°47' W 095°05'0 0.2
2018-May-17 10:52N 29°47' W 095°05'0 0.0
2018-May-17 10:30N 29°47' W 095°05'0 0.1
2018-May-17 09:59N 29°47' W 095°05'0 0.1
2018-May-17 09:30N 29°47' W 095°05'0 0.0
2018-May-17 08:59N 29°47' W 095°05'0 0.0
2018-May-17 08:29N 29°47' W 095°05'0 0.0
2018-May-17 07:58N 29°47' W 095°05'0 0.0
2018-May-17 06:49N 29°47' W 095°05'0 0.0
2018-May-17 06:26N 29°47' W 095°05'0 0.1
2018-May-17 06:00N 29°47' W 095°05'0 0.2
2018-May-17 05:26N 29°47' W 095°05'0 0.2
2018-May-17 05:00N 29°47' W 095°05'1 1.2
2018-May-17 04:27N 29°47' W 095°04'1 1.5
2018-May-17 04:00N 29°46' W 095°05'0 0.1
2018-May-17 03:30N 29°47' W 095°05'1 1.6
2018-May-17 03:00N 29°46' W 095°05'3 6.3
2018-May-17 02:30N 29°44' W 095°02'3 6.1
2018-May-17 02:00N 29°42' W 094°59'4 7.2
2018-May-17 01:30N 29°38' W 094°58'4 7.5
2018-May-17 01:00N 29°35' W 094°56'3 7.0
2018-May-17 00:30N 29°32' W 094°54'3 6.8
2018-May-17 00:00N 29°29' W 094°52'3 7.0
2018-May-16 23:30N 29°26' W 094°50'3 6.9
2018-May-16 23:00N 29°23' W 094°48'2 4.9
2018-May-16 22:30N 29°23' W 094°46'1 1.8
2018-May-16 21:54N 29°24' W 094°45'0 0.2
2018-May-16 21:30N 29°24' W 094°45'0 0.5
2018-May-16 21:00N 29°24' W 094°44'0 0.0
2018-May-16 20:30N 29°24' W 094°44'0 0.0
2018-May-16 20:00N 29°24' W 094°44'0 0.0
2018-May-16 14:51N 29°24' W 094°44'0 0.0
2018-May-16 14:30N 29°24' W 094°44'0 0.0
2018-May-16 14:01N 29°24' W 094°44'0 0.0
2018-May-16 13:31N 29°24' W 094°44'0 0.0
2018-May-16 13:00N 29°24' W 094°44'0 0.0
2018-May-16 12:29N 29°24' W 094°44'0 0.0
2018-May-16 12:01N 29°24' W 094°44'0 0.0
2018-May-16 11:30N 29°24' W 094°44'0 0.0
2018-May-16 11:00N 29°24' W 094°44'0 0.0
2018-May-16 10:30N 29°24' W 094°44'1 2.4
2018-May-16 10:01N 29°25' W 094°44'2 4.2
2018-May-16 09:31N 29°27' W 094°42'2 4.8
2018-May-16 09:00N 29°28' W 094°39'2 5.0
2018-May-16 08:31N 29°29' W 094°37'3 5.0
2018-May-16 08:01N 29°30' W 094°34'3 5.2
2018-May-16 07:30N 29°31' W 094°31'2 4.9
2018-May-16 07:01N 29°32' W 094°29'2 4.8
2018-May-16 06:31N 29°34' W 094°27'2 3.6
2018-May-16 06:01N 29°34' W 094°25'2 3.9
2018-May-16 05:31N 29°36' W 094°24'2 4.5
2018-May-16 05:01N 29°37' W 094°21'2 4.2
2018-May-16 04:31N 29°38' W 094°19'2 4.5
2018-May-16 04:00N 29°39' W 094°17'2 4.6
2018-May-16 03:31N 29°40' W 094°14'2 4.6
2018-May-16 03:00N 29°41' W 094°12'2 4.3
2018-May-16 02:31N 29°41' W 094°10'2 4.4
2018-May-16 02:01N 29°43' W 094°08'2 4.6
2018-May-16 01:30N 29°44' W 094°06'2 4.6
2018-May-16 01:01N 29°46' W 094°04'2 4.7
2018-May-16 00:30N 29°47' W 094°01'2 4.3
2018-May-16 00:01N 29°49' W 093°60'2 4.7
2018-May-15 23:31N 29°50' W 093°57'3 6.2
2018-May-15 23:01N 29°52' W 093°56'3 6.5
2018-May-15 22:30N 29°55' W 093°53'3 6.3
2018-May-15 22:01N 29°58' W 093°51'2 3.6
2018-May-15 21:29N 29°59' W 093°53'0 0.0
2018-May-15 20:59N 29°59' W 093°53'0 0.1
2018-May-15 20:28N 29°59' W 093°53'0 0.0
2018-May-15 19:58N 29°59' W 093°53'0 0.0
2018-May-15 19:28N 29°59' W 093°53'0 0.0
2018-May-15 18:58N 29°59' W 093°53'0 0.0
2018-May-15 18:28N 29°59' W 093°53'0 0.0
2018-May-15 17:58N 29°59' W 093°53'0 0.0
2018-May-15 17:28N 29°59' W 093°53'0 0.0
2018-May-15 16:58N 29°59' W 093°53'0 0.0
2018-May-15 16:28N 29°59' W 093°53'0 0.0
2018-May-15 15:58N 29°59' W 093°53'0 0.0
2018-May-15 15:28N 29°59' W 093°53'0 0.0
2018-May-15 14:58N 29°59' W 093°53'0 0.0
2018-May-15 14:28N 29°59' W 093°53'0 0.0
2018-May-15 13:58N 29°59' W 093°53'0 0.0
2018-May-15 13:28N 29°59' W 093°53'0 0.0
2018-May-15 12:58N 29°59' W 093°53'0 0.0
2018-May-15 12:28N 29°59' W 093°53'0 0.0
2018-May-15 11:58N 29°59' W 093°53'0 0.0
2018-May-15 11:28N 29°59' W 093°53'0 0.0
2018-May-15 10:55N 29°59' W 093°53'0 0.0
2018-May-15 10:28N 29°59' W 093°53'0 0.0
2018-May-15 09:55N 29°59' W 093°53'0 0.0
2018-May-15 09:28N 29°59' W 093°53'0 0.0
2018-May-15 08:58N 29°59' W 093°53'0 0.0
2018-May-15 08:28N 29°59' W 093°53'0 0.0
2018-May-15 07:58N 29°59' W 093°53'0 0.0
2018-May-15 07:28N 29°59' W 093°53'0 0.0
2018-May-15 06:58N 29°59' W 093°53'0 0.0
2018-May-15 06:28N 29°59' W 093°53'0 0.0
2018-May-15 05:58N 29°59' W 093°53'0 0.0
2018-May-15 05:28N 29°59' W 093°53'0 0.0
2018-May-15 04:58N 29°59' W 093°53'0 0.0
2018-May-15 04:28N 29°59' W 093°53'0 0.0
2018-May-15 03:58N 29°59' W 093°53'0 0.0
2018-May-15 03:28N 29°59' W 093°53'0 0.0
2018-May-15 02:58N 29°59' W 093°53'0 0.0
2018-May-15 02:28N 29°59' W 093°53'0 0.0
2018-May-15 01:58N 29°59' W 093°53'0 0.0
2018-May-15 01:28N 29°59' W 093°53'0 0.0
2018-May-15 00:58N 29°59' W 093°53'0 0.0
2018-May-15 00:28N 29°59' W 093°53'0 0.0
2018-May-14 23:58N 29°59' W 093°53'0 0.0
2018-May-14 23:28N 29°59' W 093°53'0 0.0
2018-May-14 22:58N 29°59' W 093°53'0 0.0
2018-May-14 22:28N 29°59' W 093°53'0 0.0
2018-May-14 21:58N 29°59' W 093°53'0 0.0
2018-May-14 21:28N 29°59' W 093°53'0 0.2
2018-May-14 20:58N 29°59' W 093°53'0 0.1
2018-May-14 20:28N 29°59' W 093°53'1 3.2
2018-May-14 20:00N 29°58' W 093°51'1 1.7
2018-May-14 19:28N 29°57' W 093°52'0 0.0
2018-May-14 18:58N 29°57' W 093°52'0 0.0
2018-May-14 18:28N 29°57' W 093°52'0 0.0
2018-May-14 17:58N 29°57' W 093°52'0 0.0
2018-May-14 17:28N 29°57' W 093°52'0 0.0
2018-May-14 16:58N 29°57' W 093°52'0 0.0
2018-May-14 16:28N 29°57' W 093°52'0 0.0
2018-May-14 15:58N 29°57' W 093°52'0 0.0
2018-May-14 15:28N 29°57' W 093°52'0 0.0
2018-May-14 14:58N 29°57' W 093°52'0 0.0
2018-May-14 14:28N 29°57' W 093°52'0 0.0
2018-May-14 13:58N 29°57' W 093°52'0 0.0
2018-May-14 13:30N 29°57' W 093°52'0 0.0
2018-May-14 13:00N 29°57' W 093°52'0 0.0
2018-May-14 12:30N 29°57' W 093°52'0 0.0
2018-May-14 12:00N 29°57' W 093°52'0 0.0
2018-May-14 11:30N 29°57' W 093°52'0 0.0
2018-May-14 11:00N 29°57' W 093°52'0 0.0
2018-May-14 10:30N 29°57' W 093°52'0 0.0
2018-May-14 10:00N 29°57' W 093°52'0 0.0
2018-May-14 09:30N 29°57' W 093°52'0 0.0
2018-May-14 09:00N 29°57' W 093°52'0 0.0
2018-May-14 08:30N 29°57' W 093°52'0 0.0
2018-May-14 08:00N 29°57' W 093°52'0 0.0
2018-May-14 07:30N 29°57' W 093°52'0 0.0
2018-May-14 07:00N 29°57' W 093°52'0 0.0
2018-May-14 06:30N 29°57' W 093°52'0 0.0
2018-May-14 06:00N 29°57' W 093°52'0 0.0
2018-May-14 05:30N 29°57' W 093°52'0 0.0
2018-May-14 05:00N 29°57' W 093°52'0 0.0
2018-May-14 04:30N 29°57' W 093°52'0 0.0
2018-May-14 04:00N 29°57' W 093°52'0 0.0
2018-May-14 03:30N 29°57' W 093°52'0 0.0
2018-May-14 03:00N 29°57' W 093°52'0 0.0
2018-May-14 02:29N 29°57' W 093°52'0 0.0
2018-May-14 02:00N 29°57' W 093°52'0 0.0
2018-May-14 01:30N 29°57' W 093°52'0 0.0
2018-May-14 01:00N 29°57' W 093°52'0 0.0
2018-May-14 00:30N 29°57' W 093°52'0 0.0
2018-May-14 00:00N 29°57' W 093°52'0 0.0
2018-May-13 23:30N 29°57' W 093°52'0 0.0
2018-May-13 23:00N 29°57' W 093°52'0 0.0
2018-May-13 22:30N 29°57' W 093°52'0 0.0
2018-May-13 22:00N 29°57' W 093°52'0 0.0
2018-May-13 21:31N 29°57' W 093°52'0 0.0
2018-May-13 21:00N 29°57' W 093°52'0 0.0
2018-May-13 20:30N 29°57' W 093°52'0 0.0
2018-May-13 20:00N 29°57' W 093°52'0 0.0
2018-May-13 19:30N 29°57' W 093°52'0 0.0
2018-May-13 19:00N 29°57' W 093°52'0 0.0
2018-May-13 18:30N 29°57' W 093°52'0 0.0
2018-May-13 18:00N 29°57' W 093°52'0 0.0
2018-May-13 17:30N 29°57' W 093°52'0 0.0
2018-May-13 17:00N 29°57' W 093°52'0 0.0
2018-May-13 16:30N 29°57' W 093°52'0 0.0
2018-May-13 16:00N 29°57' W 093°52'0 0.0
2018-May-13 15:30N 29°57' W 093°52'  

Dump ship's entire track history